createdAt,value
2022-10-05T00:00:28.288Z,66.84
2022-10-05T00:03:15.519Z,67.20
2022-10-05T00:05:45.833Z,67.29
2022-10-05T00:08:24.027Z,66.97
2022-10-05T00:10:52.594Z,67.19
2022-10-05T00:13:30.443Z,67.14
2022-10-05T00:16:19.919Z,67.10
2022-10-05T00:18:51.974Z,67.62
2022-10-05T00:21:26.658Z,67.72
2022-10-05T00:23:58.113Z,67.95
2022-10-05T00:26:33.280Z,67.91
2022-10-05T00:29:02.521Z,68.18
2022-10-05T00:31:36.279Z,67.80
2022-10-05T00:34:03.304Z,67.38
2022-10-05T00:36:30.429Z,68.10
2022-10-05T00:38:57.225Z,67.89
2022-10-05T00:42:08.571Z,66.94
2022-10-05T00:44:58.071Z,66.68
2022-10-05T00:47:59.882Z,66.82
2022-10-05T00:51:21.099Z,66.92
2022-10-05T00:54:05.831Z,66.88
2022-10-05T00:56:40.138Z,67.15
2022-10-05T00:59:42.624Z,66.89
2022-10-05T01:02:30.905Z,67.81
2022-10-05T01:05:24.221Z,67.47
2022-10-05T01:08:13.354Z,68.38
2022-10-05T01:11:02.157Z,68.45
2022-10-05T01:13:49.268Z,68.50
2022-10-05T01:16:51.056Z,68.23
2022-10-05T01:19:45.993Z,67.90
2022-10-05T01:22:54.042Z,68.17
2022-10-05T01:25:51.667Z,68.37
2022-10-05T01:28:28.927Z,69.03
2022-10-05T01:31:23.022Z,69.48
2022-10-05T01:34:12.713Z,69.11
2022-10-05T01:37:21.253Z,68.61
2022-10-05T01:40:58.371Z,69.67
2022-10-05T01:43:46.603Z,68.75
2022-10-05T01:46:46.091Z,69.33
2022-10-05T01:49:54.282Z,69.24
2022-10-05T01:53:00.103Z,69.16
2022-10-05T01:55:39.156Z,69.48
2022-10-05T01:58:30.458Z,69.13
2022-10-05T02:01:10.380Z,68.99
2022-10-05T02:03:47.533Z,69.33
2022-10-05T02:06:20.517Z,69.88
2022-10-05T02:08:53.638Z,69.69
2022-10-05T02:11:20.837Z,69.58
2022-10-05T02:14:10.548Z,69.79
2022-10-05T02:16:44.366Z,69.47
2022-10-05T02:19:35.084Z,70.01
2022-10-05T02:22:10.102Z,69.35
2022-10-05T02:24:46.289Z,69.07
2022-10-05T02:27:21.426Z,68.73
2022-10-05T02:29:50.954Z,68.96
2022-10-05T02:32:27.424Z,69.42
2022-10-05T02:35:04.083Z,69.49
2022-10-05T02:38:07.514Z,69.31
2022-10-05T02:40:55.760Z,68.94
2022-10-05T02:43:50.207Z,69.19
2022-10-05T02:46:36.709Z,68.81
2022-10-05T02:49:42.279Z,69.49
2022-10-05T02:52:28.118Z,69.07
2022-10-05T02:55:24.741Z,69.67
2022-10-05T02:58:16.382Z,69.36
2022-10-05T03:01:03.094Z,70.11
2022-10-05T03:03:45.125Z,70.05
2022-10-05T03:06:27.506Z,69.92
2022-10-05T03:09:05.964Z,69.68
2022-10-05T03:12:00.208Z,70.05
2022-10-05T03:14:50.827Z,69.94
2022-10-05T03:17:23.320Z,69.93
2022-10-05T03:20:17.276Z,70.36
2022-10-05T03:23:01.452Z,70.01
2022-10-05T03:26:06.082Z,70.08
2022-10-05T03:28:57.746Z,70.19
2022-10-05T03:31:51.318Z,69.84
2022-10-05T03:34:53.915Z,69.89
2022-10-05T03:37:42.000Z,70.04
2022-10-05T03:40:40.336Z,69.96
2022-10-05T03:43:41.843Z,69.52
2022-10-05T03:46:40.335Z,69.86
2022-10-05T03:49:52.789Z,69.91
2022-10-05T03:52:36.613Z,69.41
2022-10-05T03:55:34.087Z,69.41
2022-10-05T03:58:14.995Z,68.98
2022-10-05T04:00:49.021Z,69.81
2022-10-05T04:03:30.246Z,69.43
2022-10-05T04:06:43.250Z,69.53
2022-10-05T04:09:30.321Z,69.80
2022-10-05T04:12:15.363Z,69.46
2022-10-05T04:14:51.487Z,69.28
2022-10-05T04:17:33.131Z,69.04
2022-10-05T04:20:17.671Z,68.88
2022-10-05T04:23:17.123Z,68.91
2022-10-05T04:25:53.977Z,69.01
2022-10-05T04:28:45.097Z,68.86
2022-10-05T04:31:28.230Z,68.65
2022-10-05T04:34:27.422Z,68.67
2022-10-05T04:37:06.105Z,69.38
2022-10-05T04:40:28.100Z,68.94
2022-10-05T04:43:17.613Z,69.54
2022-10-05T04:46:12.978Z,69.75
2022-10-05T04:49:04.177Z,69.55
2022-10-05T04:51:42.671Z,69.69
2022-10-05T04:54:56.111Z,69.95
2022-10-05T04:57:32.456Z,69.91
2022-10-05T05:00:22.630Z,69.99
2022-10-05T05:03:20.226Z,69.86
2022-10-05T05:06:18.367Z,69.68
2022-10-05T05:09:22.631Z,70.06
2022-10-05T05:12:23.586Z,70.09
2022-10-05T05:15:26.777Z,70.31
2022-10-05T05:18:26.579Z,70.87
2022-10-05T05:21:35.506Z,70.66
2022-10-05T05:24:30.407Z,70.89
2022-10-05T05:27:18.817Z,70.96
2022-10-05T05:30:46.007Z,70.22
2022-10-05T05:33:40.800Z,70.26
2022-10-05T05:36:32.179Z,69.73
2022-10-05T05:39:36.639Z,69.70
2022-10-05T05:42:53.278Z,69.41
2022-10-05T05:45:43.802Z,69.71
2022-10-05T05:48:26.896Z,69.28
2022-10-05T05:51:07.703Z,69.96
2022-10-05T05:53:44.455Z,69.45
2022-10-05T05:56:29.363Z,69.56
2022-10-05T05:59:20.410Z,70.03
2022-10-05T06:02:07.014Z,70.24
2022-10-05T06:04:52.492Z,69.78
2022-10-05T06:07:30.327Z,69.61
2022-10-05T06:10:58.685Z,69.75
2022-10-05T06:13:38.518Z,69.50
2022-10-05T06:16:46.436Z,69.57
2022-10-05T06:19:18.633Z,69.26
2022-10-05T06:22:05.565Z,69.42
2022-10-05T06:25:11.816Z,69.18
2022-10-05T06:28:13.479Z,69.17
2022-10-05T06:30:58.542Z,69.08
2022-10-05T06:33:53.895Z,69.34
2022-10-05T06:36:26.198Z,69.55
2022-10-05T06:39:31.924Z,69.00
2022-10-05T06:42:29.244Z,68.71
2022-10-05T06:45:16.489Z,68.80
2022-10-05T06:48:08.267Z,68.77
2022-10-05T06:51:04.370Z,68.92
2022-10-05T06:54:39.394Z,68.82
2022-10-05T06:57:24.578Z,68.44
2022-10-05T07:00:17.844Z,68.95
2022-10-05T07:03:05.163Z,68.38
2022-10-05T07:06:05.852Z,68.40
2022-10-05T07:08:38.927Z,67.79
2022-10-05T07:11:27.361Z,68.09
2022-10-05T07:14:21.888Z,67.13
2022-10-05T07:17:22.445Z,67.35
2022-10-05T07:20:37.125Z,67.84
2022-10-05T07:23:45.358Z,67.28
2022-10-05T07:26:38.014Z,66.69
2022-10-05T07:29:07.460Z,66.82
2022-10-05T07:32:07.473Z,66.96
2022-10-05T07:34:49.892Z,66.71
2022-10-05T07:37:53.676Z,67.08
2022-10-05T07:40:59.179Z,66.38
2022-10-05T07:44:00.979Z,66.74
2022-10-05T07:46:55.111Z,66.27
2022-10-05T07:49:42.398Z,65.76
2022-10-05T07:52:34.922Z,64.91
2022-10-05T07:55:25.286Z,64.59
2022-10-05T07:58:23.530Z,64.51
2022-10-05T08:01:31.300Z,64.36
2022-10-05T08:04:22.926Z,63.74
2022-10-05T08:07:17.072Z,63.58
2022-10-05T08:09:54.760Z,63.18
2022-10-05T08:12:55.037Z,63.20
2022-10-05T08:15:31.619Z,62.58
2022-10-05T08:18:35.994Z,62.95
2022-10-05T08:21:11.883Z,62.81
2022-10-05T08:24:06.087Z,62.62
2022-10-05T08:26:53.183Z,62.65
2022-10-05T08:29:35.349Z,62.35
2022-10-05T08:32:26.397Z,62.00
2022-10-05T08:35:34.336Z,62.06
2022-10-05T08:38:18.539Z,61.48
2022-10-05T08:41:32.374Z,61.24
2022-10-05T08:44:37.863Z,61.27
2022-10-05T08:47:36.330Z,61.55
2022-10-05T08:50:25.183Z,61.51
2022-10-05T08:53:25.686Z,60.37
2022-10-05T08:56:33.360Z,60.65
2022-10-05T08:59:40.785Z,60.85
2022-10-05T09:02:44.534Z,59.86
2022-10-05T09:06:14.584Z,59.67
2022-10-05T09:09:15.215Z,59.06
2022-10-05T09:12:40.424Z,58.99
2022-10-05T09:16:03.353Z,58.71
2022-10-05T09:18:55.072Z,58.91
2022-10-05T09:21:58.305Z,58.49
2022-10-05T09:24:56.283Z,58.24
2022-10-05T09:28:19.601Z,57.57
2022-10-05T09:31:24.087Z,57.56
2022-10-05T09:34:32.561Z,57.17
2022-10-05T09:37:32.556Z,56.01
2022-10-05T09:40:14.721Z,55.43
2022-10-05T09:43:20.179Z,55.44
2022-10-05T09:46:25.755Z,54.63
2022-10-05T09:49:07.984Z,54.73
2022-10-05T09:52:06.330Z,54.39
2022-10-05T09:55:14.554Z,54.71
2022-10-05T09:57:53.634Z,54.04
2022-10-05T10:01:09.303Z,54.29
2022-10-05T10:03:55.457Z,54.71
2022-10-05T10:06:51.528Z,54.26
2022-10-05T10:10:01.391Z,53.86
2022-10-05T10:12:53.592Z,53.73
2022-10-05T10:15:38.758Z,53.83
2022-10-05T10:18:46.063Z,53.63
2022-10-05T10:22:22.493Z,53.91
2022-10-05T10:25:52.412Z,54.33
2022-10-05T10:28:42.132Z,54.39
2022-10-05T10:31:45.882Z,54.32
2022-10-05T10:34:43.876Z,54.35
2022-10-05T10:37:35.512Z,53.74
2022-10-05T10:40:20.895Z,53.61
2022-10-05T10:43:29.951Z,54.05
2022-10-05T10:46:39.547Z,53.74
2022-10-05T10:49:35.255Z,53.79
2022-10-05T10:52:41.547Z,53.29
2022-10-05T10:55:34.072Z,53.41
2022-10-05T10:58:47.400Z,52.83
2022-10-05T11:01:32.868Z,53.05
2022-10-05T11:04:47.619Z,52.67
2022-10-05T11:07:48.423Z,52.23
2022-10-05T11:11:02.544Z,51.33
2022-10-05T11:14:02.819Z,51.34
2022-10-05T11:16:42.002Z,51.03
2022-10-05T11:20:02.632Z,52.06
2022-10-05T11:22:33.273Z,51.06
2022-10-05T11:25:44.592Z,50.93
2022-10-05T11:28:39.560Z,52.00
2022-10-05T11:31:37.977Z,51.56
2022-10-05T11:34:49.194Z,51.52
2022-10-05T11:37:51.243Z,50.34
2022-10-05T11:40:26.865Z,50.14
2022-10-05T11:43:50.583Z,51.02
2022-10-05T11:46:30.558Z,50.54
2022-10-05T11:49:23.379Z,50.04
2022-10-05T11:52:11.099Z,49.84
2022-10-05T11:55:13.507Z,50.60
2022-10-05T11:58:09.562Z,50.36
2022-10-05T12:00:44.993Z,50.18
2022-10-05T12:03:33.854Z,49.89
2022-10-05T12:06:51.816Z,49.99
2022-10-05T12:10:08.662Z,50.54
2022-10-05T12:13:02.460Z,49.86
2022-10-05T12:15:43.365Z,49.60
2022-10-05T12:18:32.658Z,50.16
2022-10-05T12:21:27.721Z,50.54
2022-10-05T12:24:26.845Z,49.42
2022-10-05T12:27:08.233Z,48.90
2022-10-05T12:30:01.612Z,49.13
2022-10-05T12:32:58.135Z,49.90
2022-10-05T12:36:01.471Z,49.03
2022-10-05T12:38:52.830Z,48.71
2022-10-05T12:41:32.271Z,48.52
2022-10-05T12:44:49.197Z,48.59
2022-10-05T12:47:53.819Z,49.62
2022-10-05T12:50:49.232Z,49.51
2022-10-05T12:53:48.435Z,49.55
2022-10-05T12:56:52.255Z,49.56
2022-10-05T12:59:46.343Z,48.33
2022-10-05T13:02:42.574Z,48.45
2022-10-05T13:05:09.618Z,49.22
2022-10-05T13:08:18.095Z,48.42
2022-10-05T13:11:35.165Z,48.61
2022-10-05T13:14:17.977Z,48.07
2022-10-05T13:17:03.915Z,48.60
2022-10-05T13:19:41.108Z,49.55
2022-10-05T13:22:37.294Z,48.60
2022-10-05T13:25:22.657Z,49.67
2022-10-05T13:28:07.777Z,48.98
2022-10-05T13:30:39.132Z,49.10
2022-10-05T13:33:18.063Z,48.98
2022-10-05T13:36:30.109Z,49.83
2022-10-05T13:39:05.546Z,50.04
2022-10-05T13:41:55.174Z,50.13
2022-10-05T13:44:53.798Z,50.47
2022-10-05T13:48:03.786Z,49.66
2022-10-05T13:50:36.264Z,49.29
2022-10-05T13:53:37.255Z,49.22
2022-10-05T13:56:22.315Z,50.21
2022-10-05T13:59:12.148Z,50.58
2022-10-05T14:01:57.037Z,50.63
2022-10-05T14:04:57.618Z,51.00
2022-10-05T14:07:38.932Z,50.74
2022-10-05T14:10:44.030Z,51.67
2022-10-05T14:13:43.454Z,51.62
2022-10-05T14:16:13.586Z,51.96
2022-10-05T14:19:27.103Z,52.36
2022-10-05T14:22:02.175Z,51.59
2022-10-05T14:24:44.231Z,52.28
2022-10-05T14:27:28.441Z,51.15
2022-10-05T14:30:25.688Z,50.91
2022-10-05T14:33:22.368Z,51.21
2022-10-05T14:35:53.623Z,51.12
2022-10-05T14:38:32.595Z,50.82
2022-10-05T14:41:19.196Z,51.07
2022-10-05T14:44:28.816Z,50.97
2022-10-05T14:47:02.834Z,51.16
2022-10-05T14:49:36.179Z,51.08
2022-10-05T14:52:32.657Z,51.70
2022-10-05T14:55:30.268Z,52.11
2022-10-05T14:58:24.910Z,51.48
2022-10-05T15:01:35.062Z,51.60
2022-10-05T15:04:37.000Z,51.88
2022-10-05T15:07:21.689Z,52.13
2022-10-05T15:10:36.979Z,52.41
2022-10-05T15:13:19.987Z,52.54
2022-10-05T15:16:05.396Z,52.58
2022-10-05T15:18:34.750Z,52.78
2022-10-05T15:21:56.262Z,52.81
2022-10-05T15:24:30.400Z,53.28
2022-10-05T15:27:03.511Z,53.49
2022-10-05T15:30:19.314Z,54.15
2022-10-05T15:33:09.309Z,54.05
2022-10-05T15:36:22.614Z,54.34
2022-10-05T15:39:36.339Z,54.97
2022-10-05T15:42:14.664Z,53.91
2022-10-05T15:45:10.781Z,53.97
2022-10-05T15:48:00.100Z,54.15
2022-10-05T15:50:45.968Z,54.64
2022-10-05T15:53:27.250Z,54.58
2022-10-05T15:56:30.034Z,54.64
2022-10-05T15:59:18.725Z,54.47
2022-10-05T16:01:57.187Z,54.67
2022-10-05T16:04:41.458Z,54.35
2022-10-05T16:07:39.463Z,54.26
2022-10-05T16:10:21.621Z,54.40
2022-10-05T16:13:10.108Z,54.41
2022-10-05T16:16:12.713Z,54.67
2022-10-05T16:19:08.278Z,54.66
2022-10-05T16:22:28.360Z,55.15
2022-10-05T16:25:08.905Z,54.86
2022-10-05T16:28:19.734Z,55.09
2022-10-05T16:31:00.196Z,55.14
2022-10-05T16:33:55.362Z,55.16
2022-10-05T16:36:53.182Z,55.27
2022-10-05T16:39:55.147Z,55.16
2022-10-05T16:42:44.044Z,55.49
2022-10-05T16:45:45.107Z,55.40
2022-10-05T16:48:26.732Z,55.79
2022-10-05T16:51:09.006Z,55.84
2022-10-05T16:53:46.621Z,55.69
2022-10-05T16:56:26.001Z,55.80
2022-10-05T16:59:36.991Z,56.09
2022-10-05T17:02:18.334Z,55.98
2022-10-05T17:05:30.482Z,56.21
2022-10-05T17:08:30.545Z,56.42
2022-10-05T17:11:22.202Z,56.65
2022-10-05T17:13:57.999Z,57.00
2022-10-05T17:17:07.092Z,56.75
2022-10-05T17:20:29.397Z,57.14
2022-10-05T17:23:29.307Z,57.43
2022-10-05T17:26:47.208Z,57.36
2022-10-05T17:29:45.882Z,57.55
2022-10-05T17:32:39.626Z,57.60
2022-10-05T17:35:39.846Z,57.88
2022-10-05T17:38:20.311Z,58.03
2022-10-05T17:41:30.411Z,58.02
2022-10-05T17:44:24.863Z,58.35
2022-10-05T17:47:01.459Z,58.50
2022-10-05T17:49:34.415Z,58.27
2022-10-05T17:52:42.409Z,58.73
2022-10-05T17:55:44.899Z,58.85
2022-10-05T17:58:56.327Z,59.07
2022-10-05T18:01:38.650Z,59.10
2022-10-05T18:04:11.932Z,59.28
2022-10-05T18:06:59.067Z,59.42
2022-10-05T18:09:27.334Z,59.62
2022-10-05T18:12:39.729Z,59.52
2022-10-05T18:15:06.815Z,59.54
2022-10-05T18:17:51.578Z,59.83
2022-10-05T18:20:30.808Z,59.75
2022-10-05T18:23:03.895Z,59.92
2022-10-05T18:25:53.391Z,59.70
2022-10-05T18:29:14.977Z,60.17
2022-10-05T18:32:36.173Z,60.16
2022-10-05T18:35:38.624Z,60.60
2022-10-05T18:38:30.092Z,60.60
2022-10-05T18:41:15.737Z,60.66
2022-10-05T18:44:34.790Z,60.73
2022-10-05T18:47:25.643Z,60.85
2022-10-05T18:50:07.044Z,61.06
2022-10-05T18:52:50.857Z,61.07
2022-10-05T18:55:28.733Z,60.84
2022-10-05T18:58:14.922Z,60.94
2022-10-05T19:01:29.923Z,61.15
2022-10-05T19:04:23.433Z,61.14
2022-10-05T19:07:15.601Z,60.93
2022-10-05T19:10:35.747Z,61.19
2022-10-05T19:13:43.381Z,61.17
2022-10-05T19:16:47.056Z,61.20
2022-10-05T19:19:36.055Z,61.22
2022-10-05T19:22:25.218Z,61.66
2022-10-05T19:25:04.472Z,61.96
2022-10-05T19:28:02.539Z,61.84
2022-10-05T19:30:59.271Z,61.81
2022-10-05T19:33:58.428Z,61.87
2022-10-05T19:37:03.348Z,62.12
2022-10-05T19:39:45.207Z,62.20
2022-10-05T19:42:53.198Z,62.35
2022-10-05T19:45:58.495Z,62.17
2022-10-05T19:48:40.681Z,62.58
2022-10-05T19:51:35.114Z,62.63
2022-10-05T19:54:21.415Z,63.02
2022-10-05T19:56:54.139Z,63.24
2022-10-05T19:59:28.454Z,63.03
2022-10-05T20:01:58.175Z,63.82
2022-10-05T20:04:49.552Z,63.40
2022-10-05T20:07:23.340Z,63.25
2022-10-05T20:10:00.512Z,63.33
2022-10-05T20:12:51.940Z,63.38
2022-10-05T20:15:42.245Z,63.48
2022-10-05T20:18:50.991Z,63.46
2022-10-05T20:21:39.639Z,63.35
2022-10-05T20:24:27.678Z,63.38
2022-10-05T20:27:16.136Z,63.75
2022-10-05T20:29:45.059Z,63.49
2022-10-05T20:32:18.196Z,63.37
2022-10-05T20:34:47.888Z,63.30
2022-10-05T20:37:20.371Z,63.39
2022-10-05T20:39:51.139Z,63.56
2022-10-05T20:42:20.833Z,63.70
2022-10-05T20:44:50.783Z,63.52
2022-10-05T20:47:20.307Z,63.77
2022-10-05T20:49:47.170Z,63.79
2022-10-05T20:52:15.828Z,63.88
2022-10-05T20:54:43.034Z,63.96
2022-10-05T20:57:10.286Z,63.93
2022-10-05T20:59:38.087Z,64.34
2022-10-05T21:02:06.139Z,64.54
2022-10-05T21:04:42.883Z,64.34
2022-10-05T21:07:10.255Z,64.33
2022-10-05T21:09:39.183Z,64.41
2022-10-05T21:12:06.020Z,64.55
2022-10-05T21:14:34.488Z,64.77
2022-10-05T21:17:02.145Z,64.76
2022-10-05T21:19:29.674Z,64.97
2022-10-05T21:22:02.508Z,64.68
2022-10-05T21:24:29.362Z,64.60
2022-10-05T21:26:57.647Z,64.65
2022-10-05T21:29:24.905Z,64.38
2022-10-05T21:31:52.052Z,64.51
2022-10-05T21:34:19.254Z,64.21
2022-10-05T21:36:46.494Z,64.35
2022-10-05T21:39:15.195Z,64.67
2022-10-05T21:41:42.026Z,64.43
2022-10-05T21:44:09.114Z,64.24
2022-10-05T21:46:38.896Z,64.61
2022-10-05T21:49:07.731Z,64.30
2022-10-05T21:51:39.300Z,64.38
2022-10-05T21:54:17.326Z,64.18
2022-10-05T21:56:50.366Z,64.45
2022-10-05T21:59:22.139Z,64.34
2022-10-05T22:01:49.185Z,64.31
2022-10-05T22:04:16.470Z,64.47
2022-10-05T22:06:43.603Z,64.44
2022-10-05T22:09:10.945Z,64.77
2022-10-05T22:11:38.392Z,64.38
2022-10-05T22:14:05.267Z,64.51
2022-10-05T22:16:38.561Z,64.27
2022-10-05T22:19:12.852Z,64.62
2022-10-05T22:21:41.836Z,64.28
2022-10-05T22:24:11.690Z,64.74
2022-10-05T22:26:41.520Z,64.75
2022-10-05T22:29:09.684Z,64.79
2022-10-05T22:31:37.199Z,65.07
2022-10-05T22:34:04.252Z,65.08
2022-10-05T22:36:33.507Z,65.12
2022-10-05T22:39:00.327Z,65.28
2022-10-05T22:41:27.139Z,65.55
2022-10-05T22:43:54.202Z,65.58
2022-10-05T22:46:21.521Z,65.44
2022-10-05T22:48:48.389Z,65.25
2022-10-05T22:51:15.844Z,65.67
2022-10-05T22:53:42.725Z,65.36
2022-10-05T22:56:13.807Z,65.23
2022-10-05T22:58:43.050Z,65.19
2022-10-05T23:01:16.398Z,65.22
2022-10-05T23:03:44.342Z,65.20
2022-10-05T23:06:19.105Z,65.31
2022-10-05T23:08:46.811Z,64.90
2022-10-05T23:11:23.697Z,64.96
2022-10-05T23:13:52.369Z,65.06
2022-10-05T23:16:22.921Z,65.20
2022-10-05T23:18:52.528Z,65.42
2022-10-05T23:21:21.813Z,65.36
2022-10-05T23:23:51.092Z,65.51
2022-10-05T23:26:22.756Z,64.93
2022-10-05T23:28:50.535Z,65.31
2022-10-05T23:31:21.922Z,65.74
2022-10-05T23:33:49.312Z,65.50
2022-10-05T23:36:24.636Z,65.90
2022-10-05T23:38:52.656Z,65.54
2022-10-05T23:41:20.730Z,65.67
2022-10-05T23:43:48.151Z,65.71
2022-10-05T23:46:15.487Z,65.63
2022-10-05T23:48:42.499Z,65.73
2022-10-05T23:51:12.942Z,65.94
2022-10-05T23:53:40.262Z,65.80
2022-10-05T23:56:07.711Z,65.69
2022-10-05T23:58:34.592Z,65.74
